createdAt,value
2022-08-10T00:00:56.766Z,100.00
2022-08-10T00:03:23.595Z,100.00
2022-08-10T00:05:52.816Z,100.00
2022-08-10T00:08:23.530Z,100.00
2022-08-10T00:10:55.813Z,100.00
2022-08-10T00:13:23.854Z,100.00
2022-08-10T00:15:54.237Z,100.00
2022-08-10T00:18:31.499Z,100.00
2022-08-10T00:21:04.628Z,100.00
2022-08-10T00:23:33.042Z,100.00
2022-08-10T00:26:00.203Z,100.00
2022-08-10T00:28:26.983Z,100.00
2022-08-10T00:30:54.005Z,100.00
2022-08-10T00:33:20.904Z,100.00
2022-08-10T00:35:47.893Z,100.00
2022-08-10T00:38:14.534Z,100.00
2022-08-10T00:40:41.063Z,100.00
2022-08-10T00:43:07.916Z,100.00
2022-08-10T00:45:35.458Z,100.00
2022-08-10T00:48:02.283Z,100.00
2022-08-10T00:50:29.099Z,100.00
2022-08-10T00:52:55.974Z,100.00
2022-08-10T00:55:22.493Z,100.00
2022-08-10T00:57:55.170Z,100.00
2022-08-10T01:00:25.091Z,100.00
2022-08-10T01:02:51.941Z,100.00
2022-08-10T01:05:20.357Z,100.00
2022-08-10T01:07:50.299Z,100.00
2022-08-10T01:10:38.874Z,100.00
2022-08-10T01:13:22.218Z,100.00
2022-08-10T01:16:04.350Z,100.00
2022-08-10T01:18:53.815Z,100.00
2022-08-10T01:21:54.307Z,100.00
2022-08-10T01:24:53.757Z,100.00
2022-08-10T01:27:38.478Z,100.00
2022-08-10T01:30:09.811Z,100.00
2022-08-10T01:32:55.219Z,100.00
2022-08-10T01:35:28.544Z,100.00
2022-08-10T01:38:03.578Z,100.00
2022-08-10T01:40:34.031Z,100.00
2022-08-10T01:43:08.344Z,100.00
2022-08-10T01:45:44.718Z,100.00
2022-08-10T01:48:28.642Z,100.00
2022-08-10T01:51:09.178Z,100.00
2022-08-10T01:53:41.918Z,100.00
2022-08-10T01:56:12.554Z,100.00
2022-08-10T01:58:40.470Z,100.00
2022-08-10T02:01:11.027Z,100.00
2022-08-10T02:04:05.105Z,100.00
2022-08-10T02:06:39.857Z,100.00
2022-08-10T02:09:07.963Z,100.00
2022-08-10T02:12:06.705Z,100.00
2022-08-10T02:14:34.034Z,100.00
2022-08-10T02:17:58.125Z,100.00
2022-08-10T02:20:16.736Z,100.00
2022-08-10T02:22:45.373Z,100.00
2022-08-10T02:25:42.643Z,100.00
2022-08-10T02:28:03.202Z,100.00
2022-08-10T02:30:30.939Z,100.00
2022-08-10T02:32:59.054Z,100.00
2022-08-10T02:35:27.916Z,100.00
2022-08-10T02:38:10.030Z,100.00
2022-08-10T02:45:15.100Z,100.00
2022-08-10T02:45:20.124Z,100.00
2022-08-10T02:46:48.745Z,100.00
2022-08-10T02:49:27.470Z,100.00
2022-08-10T02:52:06.408Z,100.00
2022-08-10T02:54:43.212Z,100.00
2022-08-10T02:57:16.312Z,100.00
2022-08-10T02:59:50.226Z,100.00
2022-08-10T03:02:35.114Z,100.00
2022-08-10T03:05:06.852Z,100.00
2022-08-10T03:07:46.143Z,100.00
2022-08-10T03:10:17.326Z,100.00
2022-08-10T03:12:49.853Z,100.00
2022-08-10T03:15:18.479Z,100.00
2022-08-10T03:17:57.780Z,100.00
2022-08-10T03:20:37.831Z,100.00
2022-08-10T03:23:11.294Z,100.00
2022-08-10T03:25:38.766Z,100.00
2022-08-10T03:28:06.708Z,100.00
2022-08-10T03:30:34.575Z,100.00
2022-08-10T03:33:04.024Z,100.00
2022-08-10T03:35:31.394Z,100.00
2022-08-10T03:38:00.160Z,100.00
2022-08-10T03:40:45.602Z,100.00
2022-08-10T03:43:17.410Z,100.00
2022-08-10T03:45:54.135Z,100.00
2022-08-10T03:48:44.762Z,100.00
2022-08-10T03:51:14.540Z,100.00
2022-08-10T03:54:03.561Z,100.00
2022-08-10T03:56:32.060Z,100.00
2022-08-10T03:59:00.391Z,100.00
2022-08-10T04:02:46.746Z,100.00
2022-08-10T04:04:19.290Z,100.00
2022-08-10T04:06:51.504Z,100.00
2022-08-10T04:09:29.769Z,100.00
2022-08-10T04:12:11.210Z,100.00
2022-08-10T04:14:49.058Z,100.00
2022-08-10T04:17:16.885Z,100.00
2022-08-10T04:19:49.098Z,100.00
2022-08-10T04:22:19.034Z,100.00
2022-08-10T04:24:48.315Z,100.00
2022-08-10T04:27:15.633Z,100.00
2022-08-10T04:29:43.571Z,100.00
2022-08-10T04:32:11.013Z,100.00
2022-08-10T04:34:42.019Z,100.00
2022-08-10T04:37:10.857Z,100.00
2022-08-10T04:39:39.652Z,100.00
2022-08-10T04:42:06.994Z,100.00
2022-08-10T04:44:34.283Z,100.00
2022-08-10T04:47:00.770Z,100.00
2022-08-10T04:49:55.679Z,100.00
2022-08-10T04:52:14.450Z,100.00
2022-08-10T04:54:41.675Z,100.00
2022-08-10T04:57:09.088Z,100.00
2022-08-10T04:59:36.408Z,100.00
2022-08-10T05:02:29.770Z,100.00
2022-08-10T05:04:49.726Z,100.00
2022-08-10T05:07:18.362Z,100.00
2022-08-10T05:10:02.394Z,100.00
2022-08-10T05:12:37.445Z,100.00
2022-08-10T05:15:09.843Z,100.00
2022-08-10T05:17:40.152Z,100.00
2022-08-10T05:20:09.415Z,100.00
2022-08-10T05:22:41.693Z,100.00
2022-08-10T05:25:14.245Z,77.47
2022-08-10T05:27:41.811Z,63.30
2022-08-10T05:30:11.372Z,56.88
2022-08-10T05:32:59.131Z,51.31
2022-08-10T05:35:28.888Z,49.10
2022-08-10T05:38:17.045Z,47.48
2022-08-10T05:40:47.390Z,45.80
2022-08-10T05:43:20.548Z,48.72
2022-08-10T05:46:18.084Z,54.91
2022-08-10T05:48:55.362Z,69.23
2022-08-10T05:51:25.330Z,75.35
2022-08-10T05:54:02.154Z,77.30
2022-08-10T05:56:53.891Z,88.86
2022-08-10T06:00:31.185Z,95.54
2022-08-10T06:02:33.507Z,100.00
2022-08-10T06:05:05.746Z,100.00
2022-08-10T06:07:33.186Z,100.00
2022-08-10T06:10:01.946Z,100.00
2022-08-10T06:12:30.676Z,100.00
2022-08-10T06:15:05.848Z,100.00
2022-08-10T06:17:38.366Z,100.00
2022-08-10T06:20:05.920Z,100.00
2022-08-10T06:22:33.334Z,100.00
2022-08-10T06:27:50.741Z,100.00
2022-08-10T06:30:20.019Z,100.00
2022-08-10T06:32:52.522Z,100.00
2022-08-10T06:35:20.666Z,100.00
2022-08-10T06:37:50.914Z,100.00
2022-08-10T06:40:19.561Z,100.00
2022-08-10T06:42:48.785Z,100.00
2022-08-10T06:45:31.296Z,100.00
2022-08-10T06:48:17.985Z,100.00
2022-08-10T06:50:58.035Z,100.00
2022-08-10T06:53:52.825Z,100.00
2022-08-10T06:56:36.829Z,100.00
2022-08-10T06:59:24.504Z,100.00
2022-08-10T07:01:57.474Z,100.00
2022-08-10T07:04:33.745Z,100.00
2022-08-10T07:07:06.533Z,100.00
2022-08-10T07:09:38.151Z,100.00
2022-08-10T07:12:09.623Z,100.00
2022-08-10T07:14:42.465Z,100.00
2022-08-10T07:17:19.585Z,100.00
2022-08-10T07:19:52.412Z,100.00
2022-08-10T07:23:01.504Z,98.65
2022-08-10T07:25:22.397Z,90.80
2022-08-10T07:27:59.617Z,96.33
2022-08-10T07:30:30.370Z,92.56
2022-08-10T07:32:57.565Z,89.06
2022-08-10T07:35:27.012Z,90.11
2022-08-10T07:37:55.003Z,87.91
2022-08-10T07:40:23.414Z,90.54
2022-08-10T07:42:53.915Z,85.00
2022-08-10T07:45:20.673Z,75.54
2022-08-10T07:48:05.147Z,73.19
2022-08-10T07:50:36.252Z,73.28
2022-08-10T07:53:05.001Z,68.04
2022-08-10T07:56:03.407Z,68.42
2022-08-10T07:58:25.124Z,65.39
2022-08-10T08:00:53.862Z,64.13
2022-08-10T08:03:25.456Z,66.42
2022-08-10T08:05:59.376Z,63.91
2022-08-10T08:08:31.982Z,64.39
2022-08-10T08:10:59.570Z,64.18
2022-08-10T08:13:29.411Z,61.30
2022-08-10T08:16:18.399Z,64.37
2022-08-10T08:18:58.366Z,59.88
2022-08-10T08:24:08.953Z,63.25
2022-08-10T08:24:32.598Z,62.48
2022-08-10T08:27:05.668Z,60.41
2022-08-10T08:29:35.301Z,59.13
2022-08-10T08:32:04.691Z,59.71
2022-08-10T08:34:37.877Z,58.44
2022-08-10T08:37:07.254Z,58.76
2022-08-10T08:39:35.975Z,56.71
2022-08-10T08:42:24.202Z,56.55
2022-08-10T08:45:25.167Z,56.66
2022-08-10T08:48:06.446Z,56.71
2022-08-10T08:51:08.658Z,54.25
2022-08-10T08:54:01.838Z,52.37
2022-08-10T08:56:50.428Z,51.38
2022-08-10T08:59:47.480Z,49.85
2022-08-10T09:02:54.841Z,48.77
2022-08-10T09:05:31.112Z,48.96
2022-08-10T09:08:47.836Z,47.61
2022-08-10T09:11:52.243Z,45.93
2022-08-10T09:14:40.890Z,46.51
2022-08-10T09:17:36.378Z,44.57
2022-08-10T09:20:19.197Z,45.37
2022-08-10T09:23:06.503Z,44.17
2022-08-10T09:25:36.200Z,45.13
2022-08-10T09:28:26.650Z,42.95
2022-08-10T09:31:22.004Z,44.06
2022-08-10T09:36:20.696Z,42.75
2022-08-10T09:37:24.428Z,41.69
2022-08-10T09:41:03.981Z,42.34
2022-08-10T09:44:05.754Z,42.09
2022-08-10T09:46:46.362Z,41.62
2022-08-10T09:49:53.408Z,40.60
2022-08-10T09:52:29.502Z,39.72
2022-08-10T09:55:08.425Z,41.31
2022-08-10T09:57:46.576Z,40.80
2022-08-10T10:00:20.388Z,40.74
2022-08-10T10:03:08.983Z,37.53
2022-08-10T10:05:52.558Z,36.65
2022-08-10T10:08:22.152Z,37.28
2022-08-10T10:11:03.110Z,37.90
2022-08-10T10:14:02.125Z,36.82
2022-08-10T10:16:52.497Z,37.33
2022-08-10T10:19:22.068Z,35.65
2022-08-10T10:22:08.267Z,35.58
2022-08-10T10:25:00.531Z,35.76
2022-08-10T10:27:48.062Z,35.51
2022-08-10T10:30:17.188Z,36.42
2022-08-10T10:33:08.782Z,35.25
2022-08-10T10:35:48.941Z,34.58
2022-08-10T10:38:18.208Z,35.21
2022-08-10T10:42:03.372Z,34.25
2022-08-10T10:44:51.098Z,35.74
2022-08-10T10:47:42.265Z,34.83
2022-08-10T10:50:15.701Z,33.72
2022-08-10T10:53:02.932Z,34.58
2022-08-10T10:56:13.834Z,33.38
2022-08-10T10:59:33.457Z,33.16
2022-08-10T11:02:15.357Z,31.75
2022-08-10T11:05:14.938Z,32.31
2022-08-10T11:07:53.418Z,32.29
2022-08-10T11:10:46.887Z,31.29
2022-08-10T11:14:27.499Z,31.92
2022-08-10T11:16:55.813Z,31.27
2022-08-10T11:20:00.490Z,31.79
2022-08-10T11:22:44.580Z,31.57
2022-08-10T11:25:25.554Z,32.11
2022-08-10T11:28:07.554Z,31.26
2022-08-10T11:30:46.356Z,31.05
2022-08-10T11:34:03.913Z,30.61
2022-08-10T11:36:49.134Z,31.28
2022-08-10T11:39:49.770Z,31.62
2022-08-10T11:42:37.802Z,29.97
2022-08-10T11:45:11.910Z,30.04
2022-08-10T11:47:56.877Z,30.33
2022-08-10T11:50:28.731Z,29.67
2022-08-10T11:53:19.591Z,29.67
2022-08-10T11:55:52.686Z,30.28
2022-08-10T11:58:41.005Z,30.37
2022-08-10T12:01:10.834Z,30.24
2022-08-10T12:03:41.540Z,30.58
2022-08-10T12:06:13.453Z,29.79
2022-08-10T12:10:05.323Z,30.11
2022-08-10T12:11:34.177Z,30.05
2022-08-10T12:14:21.903Z,28.42
2022-08-10T12:17:13.334Z,29.43
2022-08-10T12:19:59.431Z,31.08
2022-08-10T12:22:56.955Z,30.45
2022-08-10T12:25:56.841Z,29.65
2022-08-10T12:28:55.353Z,28.89
2022-08-10T12:31:30.123Z,28.65
2022-08-10T12:34:14.515Z,29.43
2022-08-10T12:36:51.493Z,29.64
2022-08-10T12:39:30.998Z,30.03
2022-08-10T12:42:06.231Z,30.02
2022-08-10T12:44:44.895Z,30.05
2022-08-10T12:47:28.089Z,29.55
2022-08-10T12:50:30.709Z,29.61
2022-08-10T12:52:55.309Z,29.31
2022-08-10T12:55:23.363Z,29.65
2022-08-10T12:57:56.266Z,29.33
2022-08-10T13:00:34.230Z,29.44
2022-08-10T13:03:03.228Z,29.52
2022-08-10T13:05:54.909Z,29.63
2022-08-10T13:08:40.389Z,28.54
2022-08-10T13:11:20.200Z,28.15
2022-08-10T13:14:07.684Z,27.32
2022-08-10T13:16:34.837Z,28.24
2022-08-10T13:19:03.846Z,27.61
2022-08-10T13:21:35.857Z,28.33
2022-08-10T13:24:14.869Z,27.51
2022-08-10T13:27:26.884Z,26.85
2022-08-10T13:30:01.549Z,27.29
2022-08-10T13:32:33.233Z,28.06
2022-08-10T13:35:06.912Z,27.37
2022-08-10T13:37:36.048Z,27.51
2022-08-10T13:40:05.336Z,27.32
2022-08-10T13:42:37.038Z,27.15
2022-08-10T13:45:10.087Z,26.93
2022-08-10T13:47:48.155Z,28.13
2022-08-10T13:50:20.872Z,27.59
2022-08-10T13:53:01.767Z,27.86
2022-08-10T13:55:53.269Z,27.10
2022-08-10T13:58:22.180Z,28.49
2022-08-10T14:00:49.715Z,27.80
2022-08-10T14:03:17.586Z,27.62
2022-08-10T14:05:50.728Z,27.03
2022-08-10T14:08:25.800Z,27.58
2022-08-10T14:11:08.507Z,28.01
2022-08-10T14:13:43.361Z,27.15
2022-08-10T14:16:11.773Z,28.63
2022-08-10T14:18:42.012Z,28.23
2022-08-10T14:21:08.745Z,26.78
2022-08-10T14:23:52.260Z,27.72
2022-08-10T14:26:23.910Z,28.13
2022-08-10T14:28:55.113Z,28.16
2022-08-10T14:31:29.032Z,27.63
2022-08-10T14:33:58.348Z,27.52
2022-08-10T14:36:33.141Z,27.38
2022-08-10T14:39:02.406Z,27.87
2022-08-10T14:42:04.456Z,27.59
2022-08-10T14:44:20.912Z,28.44
2022-08-10T14:46:52.163Z,27.98
2022-08-10T14:49:25.291Z,27.78
2022-08-10T14:51:57.809Z,28.08
2022-08-10T14:54:29.556Z,28.59
2022-08-10T14:57:11.290Z,26.99
2022-08-10T15:00:25.269Z,27.48
2022-08-10T15:02:39.932Z,27.97
2022-08-10T15:05:22.077Z,28.28
2022-08-10T15:07:58.940Z,27.52
2022-08-10T15:10:27.132Z,27.15
2022-08-10T15:12:58.915Z,27.71
2022-08-10T15:15:29.137Z,27.77
2022-08-10T15:17:58.300Z,28.36
2022-08-10T15:20:27.899Z,28.12
2022-08-10T15:23:03.204Z,27.91
2022-08-10T15:25:30.460Z,28.75
2022-08-10T15:28:04.948Z,27.59
2022-08-10T15:30:39.585Z,28.20
2022-08-10T15:33:56.665Z,27.78
2022-08-10T15:36:38.901Z,28.42
2022-08-10T15:40:22.337Z,28.20
2022-08-10T15:42:07.447Z,28.32
2022-08-10T15:44:43.239Z,27.94
2022-08-10T15:47:15.673Z,28.56
2022-08-10T15:50:04.471Z,28.16
2022-08-10T15:53:01.126Z,28.15
2022-08-10T15:55:44.217Z,28.39
2022-08-10T15:58:39.210Z,28.44
2022-08-10T16:02:04.013Z,28.34
2022-08-10T16:04:50.176Z,28.06
2022-08-10T16:07:21.740Z,27.78
2022-08-10T16:10:23.039Z,28.01
2022-08-10T16:12:59.622Z,28.96
2022-08-10T16:15:29.259Z,28.59
2022-08-10T16:18:03.850Z,28.70
2022-08-10T16:20:55.261Z,28.37
2022-08-10T16:23:34.213Z,29.09
2022-08-10T16:26:15.663Z,28.00
2022-08-10T16:28:58.603Z,28.58
2022-08-10T16:31:29.108Z,27.71
2022-08-10T16:33:59.052Z,27.90
2022-08-10T16:36:42.458Z,28.21
2022-08-10T16:39:15.568Z,28.20
2022-08-10T16:42:03.156Z,28.44
2022-08-10T16:44:39.307Z,28.43
2022-08-10T16:47:09.025Z,28.58
2022-08-10T16:49:38.615Z,28.15
2022-08-10T16:52:06.225Z,28.81
2022-08-10T16:54:36.168Z,28.80
2022-08-10T16:57:04.577Z,28.63
2022-08-10T16:59:36.836Z,29.40
2022-08-10T17:02:06.422Z,28.65
2022-08-10T17:04:36.409Z,29.03
2022-08-10T17:07:14.638Z,29.35
2022-08-10T17:09:48.247Z,29.31
2022-08-10T17:12:18.977Z,29.20
2022-08-10T17:14:46.269Z,29.85
2022-08-10T17:17:27.717Z,30.12
2022-08-10T17:20:30.601Z,28.97
2022-08-10T17:22:54.194Z,29.90
2022-08-10T17:25:25.465Z,29.51
2022-08-10T17:28:13.744Z,30.11
2022-08-10T17:31:24.060Z,30.11
2022-08-10T17:34:01.460Z,30.50
2022-08-10T17:36:36.030Z,30.57
2022-08-10T17:39:04.786Z,30.27
2022-08-10T17:41:36.584Z,30.12
2022-08-10T17:44:05.919Z,30.72
2022-08-10T17:46:36.348Z,30.33
2022-08-10T17:49:07.795Z,30.06
2022-08-10T17:51:36.831Z,30.40
2022-08-10T17:54:09.161Z,30.41
2022-08-10T17:56:37.921Z,31.07
2022-08-10T17:59:17.077Z,31.35
2022-08-10T18:01:58.704Z,31.24
2022-08-10T18:04:35.550Z,31.71
2022-08-10T18:07:09.794Z,32.38
2022-08-10T18:09:44.514Z,32.33
2022-08-10T18:12:17.829Z,32.81
2022-08-10T18:14:50.070Z,32.58
2022-08-10T18:17:33.875Z,33.67
2022-08-10T18:20:07.970Z,34.96
2022-08-10T18:22:43.852Z,34.83
2022-08-10T18:25:17.511Z,35.28
2022-08-10T18:28:00.910Z,36.68
2022-08-10T18:30:30.160Z,37.85
2022-08-10T18:33:04.487Z,38.53
2022-08-10T18:35:34.992Z,38.50
2022-08-10T18:38:02.882Z,39.90
2022-08-10T18:40:36.326Z,40.04
2022-08-10T18:44:04.443Z,41.37
2022-08-10T18:45:58.586Z,41.86
2022-08-10T18:48:37.201Z,41.66
2022-08-10T18:51:06.300Z,39.59
2022-08-10T18:53:48.064Z,41.19
2022-08-10T18:56:20.789Z,41.92
2022-08-10T18:59:12.384Z,43.19
2022-08-10T19:02:01.741Z,45.03
2022-08-10T19:04:42.003Z,45.05
2022-08-10T19:07:36.082Z,46.35
2022-08-10T19:10:24.575Z,47.38
2022-08-10T19:13:04.051Z,48.10
2022-08-10T19:15:30.552Z,48.64
2022-08-10T19:18:31.566Z,50.15
2022-08-10T19:21:37.510Z,51.30
2022-08-10T19:24:13.553Z,51.74
2022-08-10T19:26:51.908Z,52.67
2022-08-10T19:30:07.911Z,54.45
2022-08-10T19:32:43.961Z,55.32
2022-08-10T19:36:03.803Z,57.06
2022-08-10T19:38:33.959Z,57.34
2022-08-10T19:41:44.453Z,58.23
2022-08-10T19:44:51.246Z,59.74
2022-08-10T19:47:24.425Z,62.03
2022-08-10T19:50:09.143Z,63.24
2022-08-10T19:52:53.882Z,64.21
2022-08-10T19:55:39.024Z,63.03
2022-08-10T19:58:32.312Z,66.21
2022-08-10T20:01:01.620Z,67.72
2022-08-10T20:03:41.631Z,67.06
2022-08-10T20:06:20.045Z,66.98
2022-08-10T20:08:53.057Z,68.71
2022-08-10T20:11:45.531Z,68.98
2022-08-10T20:14:25.487Z,67.52
2022-08-10T20:17:00.267Z,66.36
2022-08-10T20:20:02.971Z,64.09
2022-08-10T20:22:35.815Z,65.22
2022-08-10T20:25:14.206Z,62.12
2022-08-10T20:28:01.633Z,62.58
2022-08-10T20:30:33.226Z,59.63
2022-08-10T20:33:17.775Z,59.65
2022-08-10T20:35:47.542Z,58.64
2022-08-10T20:38:30.141Z,58.14
2022-08-10T20:41:24.709Z,59.37
2022-08-10T20:44:12.372Z,59.95
2022-08-10T20:47:11.838Z,60.25
2022-08-10T20:49:52.340Z,62.81
2022-08-10T20:52:24.691Z,63.56
2022-08-10T20:54:57.898Z,63.69
2022-08-10T20:58:04.793Z,62.06
2022-08-10T21:00:54.261Z,62.21
2022-08-10T21:03:33.783Z,60.51
2022-08-10T21:06:43.250Z,60.56
2022-08-10T21:09:58.667Z,62.14
2022-08-10T21:12:46.403Z,63.65
2022-08-10T21:15:41.584Z,62.04
2022-08-10T21:18:08.597Z,62.37
2022-08-10T21:23:38.821Z,63.32
2022-08-10T21:25:41.617Z,63.87
2022-08-10T21:26:15.276Z,62.11
2022-08-10T21:29:10.024Z,63.36
2022-08-10T21:31:58.851Z,65.11
2022-08-10T21:34:54.203Z,65.69
2022-08-10T21:37:56.710Z,66.91
2022-08-10T21:41:18.142Z,66.39
2022-08-10T21:44:08.932Z,67.19
2022-08-10T21:47:38.066Z,67.27
2022-08-10T21:50:28.578Z,68.38
2022-08-10T21:53:43.773Z,68.71
2022-08-10T21:56:55.369Z,72.75
2022-08-10T21:59:56.389Z,73.31
2022-08-10T22:02:49.875Z,74.64
2022-08-10T22:05:42.667Z,72.34
2022-08-10T22:08:28.983Z,75.08
2022-08-10T22:11:17.319Z,74.92
2022-08-10T22:14:09.540Z,78.19
2022-08-10T22:17:03.668Z,80.29
2022-08-10T22:19:51.943Z,82.05
2022-08-10T22:22:56.310Z,82.78
2022-08-10T22:25:53.879Z,82.75
2022-08-10T22:28:39.205Z,83.00
2022-08-10T22:34:43.573Z,84.13
2022-08-10T22:37:45.656Z,85.94
2022-08-10T22:40:36.179Z,86.98
2022-08-10T22:43:35.834Z,84.77
2022-08-10T22:46:28.343Z,86.40
2022-08-10T22:49:01.389Z,88.97
2022-08-10T22:51:43.416Z,91.82
2022-08-10T22:54:41.572Z,92.59
2022-08-10T22:57:31.767Z,94.84
2022-08-10T22:59:59.077Z,95.64
2022-08-10T23:02:32.329Z,98.21
2022-08-10T23:05:11.110Z,99.41
2022-08-10T23:07:58.207Z,100.00
2022-08-10T23:10:29.145Z,100.00
2022-08-10T23:13:24.380Z,100.00
2022-08-10T23:16:32.231Z,100.00
2022-08-10T23:19:11.405Z,100.00
2022-08-10T23:22:03.408Z,100.00
2022-08-10T23:25:11.525Z,100.00
2022-08-10T23:27:40.632Z,100.00
2022-08-10T23:30:17.447Z,100.00
2022-08-10T23:32:49.162Z,100.00
2022-08-10T23:36:13.019Z,100.00
2022-08-10T23:38:07.007Z,100.00
2022-08-10T23:40:35.212Z,100.00
2022-08-10T23:43:03.168Z,100.00
2022-08-10T23:45:52.593Z,100.00
2022-08-10T23:48:24.898Z,100.00
2022-08-10T23:50:59.677Z,100.00
2022-08-10T23:53:27.980Z,100.00
2022-08-10T23:56:00.326Z,100.00
2022-08-10T23:58:34.188Z,100.00
